sensor_id;sensor_type;location;lat;lon;timestamp;P1;durP1;ratioP1;P2;durP2;ratioP2
42518;SDS011;28147;47.520;18.920;2023-10-13T00:01:56;7.63;;;4.45;;
42518;SDS011;28147;47.520;18.920;2023-10-13T00:04:33;7.80;;;4.22;;
42518;SDS011;28147;47.520;18.920;2023-10-13T00:07:01;7.22;;;3.42;;
42518;SDS011;28147;47.520;18.920;2023-10-13T00:09:28;6.97;;;3.47;;
42518;SDS011;28147;47.520;18.920;2023-10-13T00:14:26;6.47;;;3.95;;
42518;SDS011;28147;47.520;18.920;2023-10-13T00:17:03;7.30;;;2.90;;
42518;SDS011;28147;47.520;18.920;2023-10-13T00:19:33;6.88;;;2.97;;
42518;SDS011;28147;47.520;18.920;2023-10-13T00:22:07;8.30;;;3.92;;
42518;SDS011;28147;47.520;18.920;2023-10-13T00:24:40;7.28;;;3.72;;
42518;SDS011;28147;47.520;18.920;2023-10-13T00:27:13;6.70;;;3.55;;
42518;SDS011;28147;47.520;18.920;2023-10-13T00:30:05;11.18;;;4.05;;
42518;SDS011;28147;47.520;18.920;2023-10-13T00:32:50;6.65;;;3.03;;
42518;SDS011;28147;47.520;18.920;2023-10-13T00:35:19;6.13;;;3.65;;
42518;SDS011;28147;47.520;18.920;2023-10-13T00:38:00;7.40;;;3.45;;
42518;SDS011;28147;47.520;18.920;2023-10-13T00:40:30;6.05;;;3.95;;
42518;SDS011;28147;47.520;18.920;2023-10-13T00:42:56;6.72;;;3.72;;
42518;SDS011;28147;47.520;18.920;2023-10-13T00:45:31;8.15;;;3.47;;
42518;SDS011;28147;47.520;18.920;2023-10-13T00:47:59;8.07;;;3.50;;
42518;SDS011;28147;47.520;18.920;2023-10-13T00:50:26;6.47;;;2.80;;
42518;SDS011;28147;47.520;18.920;2023-10-13T00:52:52;8.02;;;4.03;;
42518;SDS011;28147;47.520;18.920;2023-10-13T00:55:18;7.05;;;3.25;;
42518;SDS011;28147;47.520;18.920;2023-10-13T00:57:49;8.30;;;4.32;;
42518;SDS011;28147;47.520;18.920;2023-10-13T01:00:18;6.60;;;3.63;;
42518;SDS011;28147;47.520;18.920;2023-10-13T01:02:45;8.30;;;4.00;;
42518;SDS011;28147;47.520;18.920;2023-10-13T01:05:19;9.27;;;4.03;;
42518;SDS011;28147;47.520;18.920;2023-10-13T01:07:49;7.85;;;3.58;;
42518;SDS011;28147;47.520;18.920;2023-10-13T01:10:18;7.47;;;3.28;;
42518;SDS011;28147;47.520;18.920;2023-10-13T01:12:44;11.55;;;3.25;;
42518;SDS011;28147;47.520;18.920;2023-10-13T01:15:10;7.90;;;3.75;;
42518;SDS011;28147;47.520;18.920;2023-10-13T01:17:38;8.32;;;3.83;;
42518;SDS011;28147;47.520;18.920;2023-10-13T01:20:04;5.85;;;3.30;;
42518;SDS011;28147;47.520;18.920;2023-10-13T01:22:30;7.22;;;3.53;;
42518;SDS011;28147;47.520;18.920;2023-10-13T01:24:57;8.70;;;3.70;;
42518;SDS011;28147;47.520;18.920;2023-10-13T01:27:30;11.05;;;3.65;;
42518;SDS011;28147;47.520;18.920;2023-10-13T01:29:55;5.55;;;2.92;;
42518;SDS011;28147;47.520;18.920;2023-10-13T01:32:23;6.05;;;3.05;;
42518;SDS011;28147;47.520;18.920;2023-10-13T01:34:49;6.10;;;3.28;;
42518;SDS011;28147;47.520;18.920;2023-10-13T01:37:20;4.82;;;3.17;;
42518;SDS011;28147;47.520;18.920;2023-10-13T01:39:46;8.80;;;3.17;;
42518;SDS011;28147;47.520;18.920;2023-10-13T01:42:14;5.97;;;3.17;;
42518;SDS011;28147;47.520;18.920;2023-10-13T01:44:44;7.45;;;3.28;;
42518;SDS011;28147;47.520;18.920;2023-10-13T01:47:10;6.72;;;3.20;;
42518;SDS011;28147;47.520;18.920;2023-10-13T01:49:37;5.35;;;2.83;;
42518;SDS011;28147;47.520;18.920;2023-10-13T01:52:12;9.20;;;3.38;;
42518;SDS011;28147;47.520;18.920;2023-10-13T01:54:42;6.55;;;3.15;;
42518;SDS011;28147;47.520;18.920;2023-10-13T01:57:10;5.47;;;3.17;;
42518;SDS011;28147;47.520;18.920;2023-10-13T01:59:57;8.73;;;3.65;;
42518;SDS011;28147;47.520;18.920;2023-10-13T02:02:28;5.60;;;3.40;;
42518;SDS011;28147;47.520;18.920;2023-10-13T02:04:54;6.03;;;3.33;;
42518;SDS011;28147;47.520;18.920;2023-10-13T02:07:25;5.38;;;2.95;;
42518;SDS011;28147;47.520;18.920;2023-10-13T02:09:55;6.15;;;3.08;;
42518;SDS011;28147;47.520;18.920;2023-10-13T02:12:21;6.35;;;3.38;;
42518;SDS011;28147;47.520;18.920;2023-10-13T02:14:52;10.15;;;3.05;;
42518;SDS011;28147;47.520;18.920;2023-10-13T02:17:18;7.18;;;3.45;;
42518;SDS011;28147;47.520;18.920;2023-10-13T02:19:46;10.85;;;3.63;;
42518;SDS011;28147;47.520;18.920;2023-10-13T02:22:12;9.82;;;3.53;;
42518;SDS011;28147;47.520;18.920;2023-10-13T02:24:50;5.65;;;3.28;;
42518;SDS011;28147;47.520;18.920;2023-10-13T02:27:17;6.65;;;3.22;;
42518;SDS011;28147;47.520;18.920;2023-10-13T02:29:48;7.78;;;3.10;;
42518;SDS011;28147;47.520;18.920;2023-10-13T02:32:14;6.60;;;2.85;;
42518;SDS011;28147;47.520;18.920;2023-10-13T02:34:49;6.70;;;2.95;;
42518;SDS011;28147;47.520;18.920;2023-10-13T02:37:14;6.53;;;3.08;;
42518;SDS011;28147;47.520;18.920;2023-10-13T02:39:41;6.00;;;3.00;;
42518;SDS011;28147;47.520;18.920;2023-10-13T02:42:07;7.72;;;3.00;;
42518;SDS011;28147;47.520;18.920;2023-10-13T02:44:33;7.47;;;2.60;;
42518;SDS011;28147;47.520;18.920;2023-10-13T02:47:01;9.35;;;3.33;;
42518;SDS011;28147;47.520;18.920;2023-10-13T02:49:27;8.05;;;3.72;;
42518;SDS011;28147;47.520;18.920;2023-10-13T02:51:59;6.25;;;3.17;;
42518;SDS011;28147;47.520;18.920;2023-10-13T02:54:32;6.32;;;3.63;;
42518;SDS011;28147;47.520;18.920;2023-10-13T02:57:04;5.68;;;3.20;;
42518;SDS011;28147;47.520;18.920;2023-10-13T02:59:31;6.15;;;2.67;;
42518;SDS011;28147;47.520;18.920;2023-10-13T03:02:11;5.75;;;3.10;;
42518;SDS011;28147;47.520;18.920;2023-10-13T03:04:55;6.18;;;3.30;;
42518;SDS011;28147;47.520;18.920;2023-10-13T03:07:27;6.03;;;3.22;;
42518;SDS011;28147;47.520;18.920;2023-10-13T03:09:58;6.80;;;3.35;;
42518;SDS011;28147;47.520;18.920;2023-10-13T03:12:35;10.55;;;4.53;;
42518;SDS011;28147;47.520;18.920;2023-10-13T03:15:01;7.70;;;2.72;;
42518;SDS011;28147;47.520;18.920;2023-10-13T03:17:45;5.45;;;3.17;;
42518;SDS011;28147;47.520;18.920;2023-10-13T03:20:12;5.45;;;2.78;;
42518;SDS011;28147;47.520;18.920;2023-10-13T03:22:56;8.07;;;3.60;;
42518;SDS011;28147;47.520;18.920;2023-10-13T03:25:23;9.07;;;3.72;;
42518;SDS011;28147;47.520;18.920;2023-10-13T03:27:50;7.22;;;3.45;;
42518;SDS011;28147;47.520;18.920;2023-10-13T03:30:16;5.53;;;3.00;;
42518;SDS011;28147;47.520;18.920;2023-10-13T03:32:42;4.40;;;2.80;;
42518;SDS011;28147;47.520;18.920;2023-10-13T03:35:11;7.38;;;3.33;;
42518;SDS011;28147;47.520;18.920;2023-10-13T03:37:53;9.55;;;3.75;;
42518;SDS011;28147;47.520;18.920;2023-10-13T03:40:19;6.28;;;2.97;;
42518;SDS011;28147;47.520;18.920;2023-10-13T03:42:46;7.22;;;3.15;;
42518;SDS011;28147;47.520;18.920;2023-10-13T03:45:41;4.32;;;2.38;;
42518;SDS011;28147;47.520;18.920;2023-10-13T03:48:15;8.43;;;3.65;;
42518;SDS011;28147;47.520;18.920;2023-10-13T03:50:50;6.18;;;3.30;;
42518;SDS011;28147;47.520;18.920;2023-10-13T03:53:33;7.68;;;3.65;;
42518;SDS011;28147;47.520;18.920;2023-10-13T03:56:04;6.35;;;3.42;;
42518;SDS011;28147;47.520;18.920;2023-10-13T03:58:34;8.45;;;3.13;;
42518;SDS011;28147;47.520;18.920;2023-10-13T04:01:01;6.82;;;3.35;;
42518;SDS011;28147;47.520;18.920;2023-10-13T04:03:28;6.75;;;3.35;;
42518;SDS011;28147;47.520;18.920;2023-10-13T04:08:31;8.18;;;3.67;;
42518;SDS011;28147;47.520;18.920;2023-10-13T04:11:08;5.05;;;2.67;;
42518;SDS011;28147;47.520;18.920;2023-10-13T04:13:52;8.85;;;3.67;;
42518;SDS011;28147;47.520;18.920;2023-10-13T04:16:36;6.78;;;3.40;;
42518;SDS011;28147;47.520;18.920;2023-10-13T04:19:03;7.45;;;3.40;;
42518;SDS011;28147;47.520;18.920;2023-10-13T04:26:53;8.05;;;3.50;;
42518;SDS011;28147;47.520;18.920;2023-10-13T04:29:37;6.78;;;3.15;;
42518;SDS011;28147;47.520;18.920;2023-10-13T04:32:21;5.20;;;2.47;;
42518;SDS011;28147;47.520;18.920;2023-10-13T04:34:56;5.82;;;3.08;;
42518;SDS011;28147;47.520;18.920;2023-10-13T04:40:13;9.13;;;3.45;;
42518;SDS011;28147;47.520;18.920;2023-10-13T04:42:39;6.82;;;3.67;;
42518;SDS011;28147;47.520;18.920;2023-10-13T04:45:15;6.57;;;3.15;;
42518;SDS011;28147;47.520;18.920;2023-10-13T04:47:58;5.75;;;3.20;;
42518;SDS011;28147;47.520;18.920;2023-10-13T04:50:58;6.10;;;2.80;;
42518;SDS011;28147;47.520;18.920;2023-10-13T04:53:44;9.25;;;3.38;;
42518;SDS011;28147;47.520;18.920;2023-10-13T04:56:25;6.18;;;3.15;;
42518;SDS011;28147;47.520;18.920;2023-10-13T04:59:06;7.80;;;3.42;;
42518;SDS011;28147;47.520;18.920;2023-10-13T05:01:43;5.65;;;2.80;;
42518;SDS011;28147;47.520;18.920;2023-10-13T05:04:15;5.95;;;3.47;;
42518;SDS011;28147;47.520;18.920;2023-10-13T05:06:58;11.05;;;3.55;;
42518;SDS011;28147;47.520;18.920;2023-10-13T05:09:42;4.95;;;3.30;;
42518;SDS011;28147;47.520;18.920;2023-10-13T05:12:42;9.10;;;3.45;;
42518;SDS011;28147;47.520;18.920;2023-10-13T05:15:26;5.88;;;2.85;;
42518;SDS011;28147;47.520;18.920;2023-10-13T05:18:23;6.43;;;3.25;;
42518;SDS011;28147;47.520;18.920;2023-10-13T05:21:07;7.60;;;3.28;;
42518;SDS011;28147;47.520;18.920;2023-10-13T05:23:51;8.45;;;3.58;;
42518;SDS011;28147;47.520;18.920;2023-10-13T05:26:35;5.22;;;2.90;;
42518;SDS011;28147;47.520;18.920;2023-10-13T05:29:19;5.55;;;3.03;;
42518;SDS011;28147;47.520;18.920;2023-10-13T05:32:03;9.45;;;3.05;;
42518;SDS011;28147;47.520;18.920;2023-10-13T05:34:47;9.20;;;3.97;;
42518;SDS011;28147;47.520;18.920;2023-10-13T05:37:31;8.40;;;3.33;;
42518;SDS011;28147;47.520;18.920;2023-10-13T05:40:15;5.70;;;3.30;;
42518;SDS011;28147;47.520;18.920;2023-10-13T05:42:59;8.27;;;3.33;;
42518;SDS011;28147;47.520;18.920;2023-10-13T05:45:43;5.10;;;3.20;;
42518;SDS011;28147;47.520;18.920;2023-10-13T05:48:27;9.35;;;3.20;;
42518;SDS011;28147;47.520;18.920;2023-10-13T05:51:31;7.80;;;3.25;;
42518;SDS011;28147;47.520;18.920;2023-10-13T05:54:13;6.88;;;3.08;;
42518;SDS011;28147;47.520;18.920;2023-10-13T05:59:26;5.63;;;3.80;;
42518;SDS011;28147;47.520;18.920;2023-10-13T06:02:11;7.88;;;3.42;;
42518;SDS011;28147;47.520;18.920;2023-10-13T06:05:05;8.50;;;4.10;;
42518;SDS011;28147;47.520;18.920;2023-10-13T06:07:51;10.93;;;3.88;;
42518;SDS011;28147;47.520;18.920;2023-10-13T06:10:36;6.63;;;3.55;;
42518;SDS011;28147;47.520;18.920;2023-10-13T06:13:21;6.78;;;3.20;;
42518;SDS011;28147;47.520;18.920;2023-10-13T06:18:56;5.72;;;3.40;;
42518;SDS011;28147;47.520;18.920;2023-10-13T06:21:40;7.97;;;4.47;;
42518;SDS011;28147;47.520;18.920;2023-10-13T06:24:24;7.05;;;3.67;;
42518;SDS011;28147;47.520;18.920;2023-10-13T06:27:08;7.30;;;3.33;;
42518;SDS011;28147;47.520;18.920;2023-10-13T06:29:52;5.55;;;3.50;;
42518;SDS011;28147;47.520;18.920;2023-10-13T06:32:20;6.85;;;3.65;;
42518;SDS011;28147;47.520;18.920;2023-10-13T06:34:51;7.30;;;3.60;;
42518;SDS011;28147;47.520;18.920;2023-10-13T06:37:26;7.30;;;3.83;;
42518;SDS011;28147;47.520;18.920;2023-10-13T06:40:02;8.38;;;3.80;;
42518;SDS011;28147;47.520;18.920;2023-10-13T06:42:47;6.65;;;3.58;;
42518;SDS011;28147;47.520;18.920;2023-10-13T06:45:13;6.20;;;4.00;;
42518;SDS011;28147;47.520;18.920;2023-10-13T06:47:41;6.57;;;3.35;;
42518;SDS011;28147;47.520;18.920;2023-10-13T06:50:12;8.20;;;3.88;;
42518;SDS011;28147;47.520;18.920;2023-10-13T06:52:45;7.80;;;4.60;;
42518;SDS011;28147;47.520;18.920;2023-10-13T06:55:14;8.20;;;3.58;;
42518;SDS011;28147;47.520;18.920;2023-10-13T06:57:56;9.63;;;3.70;;
42518;SDS011;28147;47.520;18.920;2023-10-13T07:00:27;8.07;;;3.85;;
42518;SDS011;28147;47.520;18.920;2023-10-13T07:02:59;6.60;;;3.72;;
42518;SDS011;28147;47.520;18.920;2023-10-13T07:05:37;9.95;;;3.50;;
42518;SDS011;28147;47.520;18.920;2023-10-13T07:08:06;5.40;;;3.10;;
42518;SDS011;28147;47.520;18.920;2023-10-13T07:10:33;10.30;;;3.67;;
42518;SDS011;28147;47.520;18.920;2023-10-13T07:13:17;9.45;;;3.92;;
42518;SDS011;28147;47.520;18.920;2023-10-13T07:15:44;7.43;;;3.40;;
42518;SDS011;28147;47.520;18.920;2023-10-13T07:18:12;7.75;;;4.00;;
42518;SDS011;28147;47.520;18.920;2023-10-13T07:20:39;8.77;;;3.63;;
42518;SDS011;28147;47.520;18.920;2023-10-13T07:23:09;7.35;;;3.80;;
42518;SDS011;28147;47.520;18.920;2023-10-13T07:25:51;6.50;;;3.70;;
42518;SDS011;28147;47.520;18.920;2023-10-13T07:28:27;7.93;;;3.50;;
42518;SDS011;28147;47.520;18.920;2023-10-13T07:30:53;5.57;;;3.20;;
42518;SDS011;28147;47.520;18.920;2023-10-13T07:33:19;6.07;;;3.45;;
42518;SDS011;28147;47.520;18.920;2023-10-13T07:35:47;8.07;;;3.35;;
42518;SDS011;28147;47.520;18.920;2023-10-13T07:38:41;8.07;;;3.28;;
42518;SDS011;28147;47.520;18.920;2023-10-13T07:41:08;6.55;;;3.00;;
42518;SDS011;28147;47.520;18.920;2023-10-13T07:43:33;10.15;;;4.05;;
42518;SDS011;28147;47.520;18.920;2023-10-13T07:45:59;6.78;;;3.15;;
42518;SDS011;28147;47.520;18.920;2023-10-13T07:48:24;6.13;;;3.47;;
42518;SDS011;28147;47.520;18.920;2023-10-13T07:53:43;7.80;;;3.95;;
42518;SDS011;28147;47.520;18.920;2023-10-13T07:56:13;5.22;;;3.35;;
42518;SDS011;28147;47.520;18.920;2023-10-13T07:58:42;8.52;;;4.38;;
42518;SDS011;28147;47.520;18.920;2023-10-13T08:01:34;6.63;;;3.45;;
42518;SDS011;28147;47.520;18.920;2023-10-13T08:04:00;7.20;;;3.80;;
42518;SDS011;28147;47.520;18.920;2023-10-13T08:06:38;7.10;;;4.05;;
42518;SDS011;28147;47.520;18.920;2023-10-13T08:09:08;8.70;;;3.88;;
42518;SDS011;28147;47.520;18.920;2023-10-13T08:11:37;8.95;;;3.33;;
42518;SDS011;28147;47.520;18.920;2023-10-13T08:14:03;6.25;;;3.78;;
42518;SDS011;28147;47.520;18.920;2023-10-13T08:16:39;7.43;;;3.88;;
42518;SDS011;28147;47.520;18.920;2023-10-13T08:19:24;6.13;;;3.80;;
42518;SDS011;28147;47.520;18.920;2023-10-13T08:22:04;8.00;;;4.20;;
42518;SDS011;28147;47.520;18.920;2023-10-13T08:24:45;9.75;;;4.00;;
42518;SDS011;28147;47.520;18.920;2023-10-13T08:27:12;6.25;;;3.08;;
42518;SDS011;28147;47.520;18.920;2023-10-13T08:32:23;6.38;;;3.67;;
42518;SDS011;28147;47.520;18.920;2023-10-13T08:34:49;6.35;;;3.40;;
42518;SDS011;28147;47.520;18.920;2023-10-13T08:37:17;7.82;;;3.95;;
42518;SDS011;28147;47.520;18.920;2023-10-13T08:39:56;7.93;;;3.53;;
42518;SDS011;28147;47.520;18.920;2023-10-13T08:45:12;7.90;;;3.17;;
42518;SDS011;28147;47.520;18.920;2023-10-13T08:47:51;8.32;;;3.55;;
42518;SDS011;28147;47.520;18.920;2023-10-13T08:50:35;5.65;;;3.45;;
42518;SDS011;28147;47.520;18.920;2023-10-13T08:58:46;6.43;;;3.42;;
42518;SDS011;28147;47.520;18.920;2023-10-13T09:01:19;7.53;;;3.63;;
42518;SDS011;28147;47.520;18.920;2023-10-13T09:04:09;8.90;;;3.45;;
42518;SDS011;28147;47.520;18.920;2023-10-13T09:09:24;13.43;;;4.15;;
42518;SDS011;28147;47.520;18.920;2023-10-13T09:11:59;7.28;;;3.53;;
42518;SDS011;28147;47.520;18.920;2023-10-13T09:14:38;7.55;;;3.60;;
42518;SDS011;28147;47.520;18.920;2023-10-13T09:17:10;10.45;;;4.50;;
42518;SDS011;28147;47.520;18.920;2023-10-13T09:19:43;8.30;;;3.97;;
42518;SDS011;28147;47.520;18.920;2023-10-13T09:22:29;6.68;;;3.60;;
42518;SDS011;28147;47.520;18.920;2023-10-13T09:25:04;6.45;;;3.40;;
42518;SDS011;28147;47.520;18.920;2023-10-13T09:27:30;8.40;;;4.10;;
42518;SDS011;28147;47.520;18.920;2023-10-13T09:30:03;7.97;;;4.13;;
42518;SDS011;28147;47.520;18.920;2023-10-13T09:32:43;10.73;;;4.13;;
42518;SDS011;28147;47.520;18.920;2023-10-13T09:35:19;6.45;;;3.45;;
42518;SDS011;28147;47.520;18.920;2023-10-13T09:37:52;7.38;;;3.42;;
42518;SDS011;28147;47.520;18.920;2023-10-13T09:40:21;5.93;;;3.47;;
42518;SDS011;28147;47.520;18.920;2023-10-13T09:45:30;9.90;;;3.85;;
42518;SDS011;28147;47.520;18.920;2023-10-13T09:48:12;6.28;;;3.58;;
42518;SDS011;28147;47.520;18.920;2023-10-13T09:50:51;6.22;;;3.38;;
42518;SDS011;28147;47.520;18.920;2023-10-13T09:53:21;6.80;;;3.70;;
42518;SDS011;28147;47.520;18.920;2023-10-13T09:55:50;9.27;;;4.07;;
42518;SDS011;28147;47.520;18.920;2023-10-13T09:58:26;6.70;;;3.50;;
42518;SDS011;28147;47.520;18.920;2023-10-13T10:01:02;9.63;;;3.92;;
42518;SDS011;28147;47.520;18.920;2023-10-13T10:03:43;7.60;;;3.67;;
42518;SDS011;28147;47.520;18.920;2023-10-13T10:06:20;8.70;;;4.25;;
42518;SDS011;28147;47.520;18.920;2023-10-13T10:08:53;6.93;;;4.50;;
42518;SDS011;28147;47.520;18.920;2023-10-13T10:17:24;7.53;;;4.50;;
42518;SDS011;28147;47.520;18.920;2023-10-13T10:19:54;7.45;;;3.97;;
42518;SDS011;28147;47.520;18.920;2023-10-13T10:22:27;8.00;;;4.10;;
42518;SDS011;28147;47.520;18.920;2023-10-13T10:24:58;10.65;;;4.47;;
42518;SDS011;28147;47.520;18.920;2023-10-13T10:27:57;10.93;;;4.25;;
42518;SDS011;28147;47.520;18.920;2023-10-13T10:30:24;5.78;;;3.70;;
42518;SDS011;28147;47.520;18.920;2023-10-13T10:32:54;8.63;;;4.45;;
42518;SDS011;28147;47.520;18.920;2023-10-13T10:38:25;8.85;;;4.18;;
42518;SDS011;28147;47.520;18.920;2023-10-13T10:40:55;10.13;;;4.32;;
42518;SDS011;28147;47.520;18.920;2023-10-13T10:43:23;9.88;;;3.70;;
42518;SDS011;28147;47.520;18.920;2023-10-13T10:45:51;6.72;;;3.45;;
42518;SDS011;28147;47.520;18.920;2023-10-13T10:48:18;10.15;;;4.75;;
42518;SDS011;28147;47.520;18.920;2023-10-13T10:50:53;12.57;;;4.13;;
42518;SDS011;28147;47.520;18.920;2023-10-13T10:53:22;7.18;;;3.35;;
42518;SDS011;28147;47.520;18.920;2023-10-13T10:56:03;9.52;;;4.00;;
42518;SDS011;28147;47.520;18.920;2023-10-13T10:58:33;11.27;;;4.10;;
42518;SDS011;28147;47.520;18.920;2023-10-13T11:01:08;9.50;;;4.30;;
42518;SDS011;28147;47.520;18.920;2023-10-13T11:03:52;9.45;;;5.18;;
42518;SDS011;28147;47.520;18.920;2023-10-13T11:06:33;9.60;;;5.22;;
42518;SDS011;28147;47.520;18.920;2023-10-13T11:09:03;8.88;;;5.15;;
42518;SDS011;28147;47.520;18.920;2023-10-13T11:11:43;14.80;;;6.30;;
42518;SDS011;28147;47.520;18.920;2023-10-13T11:14:09;10.25;;;5.78;;
42518;SDS011;28147;47.520;18.920;2023-10-13T11:16:51;11.45;;;5.93;;
42518;SDS011;28147;47.520;18.920;2023-10-13T11:19:34;14.75;;;6.18;;
42518;SDS011;28147;47.520;18.920;2023-10-13T11:22:10;12.15;;;6.28;;
42518;SDS011;28147;47.520;18.920;2023-10-13T11:25:05;15.98;;;7.03;;
42518;SDS011;28147;47.520;18.920;2023-10-13T11:27:34;16.35;;;7.18;;
42518;SDS011;28147;47.520;18.920;2023-10-13T11:30:33;11.00;;;6.13;;
42518;SDS011;28147;47.520;18.920;2023-10-13T11:35:34;14.60;;;7.68;;
42518;SDS011;28147;47.520;18.920;2023-10-13T11:38:36;15.70;;;6.95;;
42518;SDS011;28147;47.520;18.920;2023-10-13T11:41:10;10.85;;;5.75;;
42518;SDS011;28147;47.520;18.920;2023-10-13T11:46:21;13.68;;;6.50;;
42518;SDS011;28147;47.520;18.920;2023-10-13T11:49:09;9.25;;;5.68;;
42518;SDS011;28147;47.520;18.920;2023-10-13T11:51:45;12.20;;;5.43;;
42518;SDS011;28147;47.520;18.920;2023-10-13T11:54:15;13.98;;;5.88;;
42518;SDS011;28147;47.520;18.920;2023-10-13T11:56:46;11.00;;;5.97;;
42518;SDS011;28147;47.520;18.920;2023-10-13T11:59:12;11.05;;;4.90;;
42518;SDS011;28147;47.520;18.920;2023-10-13T12:04:32;10.50;;;4.30;;
42518;SDS011;28147;47.520;18.920;2023-10-13T12:07:17;9.50;;;4.90;;
42518;SDS011;28147;47.520;18.920;2023-10-13T12:09:47;11.10;;;6.10;;
42518;SDS011;28147;47.520;18.920;2023-10-13T12:12:20;8.82;;;5.55;;
42518;SDS011;28147;47.520;18.920;2023-10-13T12:14:49;8.60;;;4.95;;
42518;SDS011;28147;47.520;18.920;2023-10-13T12:17:19;9.70;;;4.43;;
42518;SDS011;28147;47.520;18.920;2023-10-13T12:20:03;12.07;;;4.82;;
42518;SDS011;28147;47.520;18.920;2023-10-13T12:22:30;8.57;;;4.53;;
42518;SDS011;28147;47.520;18.920;2023-10-13T12:25:07;11.07;;;4.22;;
42518;SDS011;28147;47.520;18.920;2023-10-13T12:27:52;7.00;;;3.92;;
42518;SDS011;28147;47.520;18.920;2023-10-13T12:30:22;10.32;;;4.50;;
42518;SDS011;28147;47.520;18.920;2023-10-13T12:33:00;9.63;;;4.22;;
42518;SDS011;28147;47.520;18.920;2023-10-13T12:35:43;7.80;;;3.63;;
42518;SDS011;28147;47.520;18.920;2023-10-13T12:38:29;9.30;;;4.10;;
42518;SDS011;28147;47.520;18.920;2023-10-13T12:41:13;9.05;;;4.40;;
42518;SDS011;28147;47.520;18.920;2023-10-13T12:43:58;6.25;;;3.22;;
42518;SDS011;28147;47.520;18.920;2023-10-13T12:46:46;7.75;;;3.00;;
42518;SDS011;28147;47.520;18.920;2023-10-13T12:49:32;9.15;;;4.32;;
42518;SDS011;28147;47.520;18.920;2023-10-13T12:52:07;9.05;;;3.78;;
42518;SDS011;28147;47.520;18.920;2023-10-13T12:54:53;11.05;;;4.60;;
42518;SDS011;28147;47.520;18.920;2023-10-13T12:57:22;13.93;;;5.28;;
42518;SDS011;28147;47.520;18.920;2023-10-13T12:59:51;6.25;;;3.30;;
42518;SDS011;28147;47.520;18.920;2023-10-13T13:02:23;6.22;;;2.83;;
42518;SDS011;28147;47.520;18.920;2023-10-13T13:04:50;7.63;;;3.83;;
42518;SDS011;28147;47.520;18.920;2023-10-13T13:07:19;8.63;;;4.20;;
42518;SDS011;28147;47.520;18.920;2023-10-13T13:09:45;10.07;;;4.95;;
42518;SDS011;28147;47.520;18.920;2023-10-13T13:12:10;7.72;;;3.80;;
42518;SDS011;28147;47.520;18.920;2023-10-13T13:14:38;11.85;;;4.25;;
42518;SDS011;28147;47.520;18.920;2023-10-13T13:17:06;8.70;;;4.03;;
42518;SDS011;28147;47.520;18.920;2023-10-13T13:19:32;13.13;;;4.05;;
42518;SDS011;28147;47.520;18.920;2023-10-13T13:22:03;8.50;;;4.70;;
42518;SDS011;28147;47.520;18.920;2023-10-13T13:24:39;8.50;;;4.93;;
42518;SDS011;28147;47.520;18.920;2023-10-13T13:27:14;7.22;;;3.70;;
42518;SDS011;28147;47.520;18.920;2023-10-13T13:29:47;8.43;;;3.58;;
42518;SDS011;28147;47.520;18.920;2023-10-13T13:32:12;6.63;;;3.75;;
42518;SDS011;28147;47.520;18.920;2023-10-13T13:34:48;7.65;;;3.40;;
42518;SDS011;28147;47.520;18.920;2023-10-13T13:37:28;4.80;;;2.80;;
42518;SDS011;28147;47.520;18.920;2023-10-13T13:39:54;8.65;;;3.10;;
42518;SDS011;28147;47.520;18.920;2023-10-13T13:42:19;6.72;;;2.90;;
42518;SDS011;28147;47.520;18.920;2023-10-13T13:44:45;5.32;;;3.08;;
42518;SDS011;28147;47.520;18.920;2023-10-13T13:47:13;7.53;;;3.03;;
42518;SDS011;28147;47.520;18.920;2023-10-13T13:49:39;6.07;;;2.97;;
42518;SDS011;28147;47.520;18.920;2023-10-13T13:52:16;6.38;;;2.53;;
42518;SDS011;28147;47.520;18.920;2023-10-13T13:54:58;6.80;;;3.50;;
42518;SDS011;28147;47.520;18.920;2023-10-13T13:57:27;7.38;;;3.33;;
42518;SDS011;28147;47.520;18.920;2023-10-13T13:59:53;5.90;;;2.85;;
42518;SDS011;28147;47.520;18.920;2023-10-13T14:02:18;6.68;;;2.97;;
42518;SDS011;28147;47.520;18.920;2023-10-13T14:04:47;9.57;;;3.38;;
42518;SDS011;28147;47.520;18.920;2023-10-13T14:07:15;9.38;;;3.28;;
42518;SDS011;28147;47.520;18.920;2023-10-13T14:09:44;7.40;;;2.63;;
42518;SDS011;28147;47.520;18.920;2023-10-13T14:12:09;9.77;;;2.92;;
42518;SDS011;28147;47.520;18.920;2023-10-13T14:14:53;6.18;;;2.55;;
42518;SDS011;28147;47.520;18.920;2023-10-13T14:17:22;5.47;;;2.67;;
42518;SDS011;28147;47.520;18.920;2023-10-13T14:19:55;6.82;;;2.67;;
42518;SDS011;28147;47.520;18.920;2023-10-13T14:22:23;7.45;;;3.13;;
42518;SDS011;28147;47.520;18.920;2023-10-13T14:24:52;4.18;;;2.50;;
42518;SDS011;28147;47.520;18.920;2023-10-13T14:27:21;6.20;;;2.83;;
42518;SDS011;28147;47.520;18.920;2023-10-13T14:29:48;7.07;;;3.13;;
42518;SDS011;28147;47.520;18.920;2023-10-13T14:32:18;8.93;;;3.10;;
42518;SDS011;28147;47.520;18.920;2023-10-13T14:34:44;8.80;;;3.03;;
42518;SDS011;28147;47.520;18.920;2023-10-13T14:37:11;7.13;;;2.78;;
42518;SDS011;28147;47.520;18.920;2023-10-13T14:39:46;7.35;;;2.90;;
42518;SDS011;28147;47.520;18.920;2023-10-13T14:42:11;9.18;;;3.55;;
42518;SDS011;28147;47.520;18.920;2023-10-13T14:44:36;6.25;;;2.45;;
42518;SDS011;28147;47.520;18.920;2023-10-13T14:47:02;6.40;;;3.22;;
42518;SDS011;28147;47.520;18.920;2023-10-13T14:49:30;8.18;;;2.92;;
42518;SDS011;28147;47.520;18.920;2023-10-13T14:51:55;8.73;;;3.08;;
42518;SDS011;28147;47.520;18.920;2023-10-13T14:54:21;5.00;;;2.45;;
42518;SDS011;28147;47.520;18.920;2023-10-13T14:56:58;4.18;;;2.80;;
42518;SDS011;28147;47.520;18.920;2023-10-13T14:59:27;8.80;;;3.13;;
42518;SDS011;28147;47.520;18.920;2023-10-13T15:01:53;5.85;;;2.83;;
42518;SDS011;28147;47.520;18.920;2023-10-13T15:04:18;8.65;;;2.92;;
42518;SDS011;28147;47.520;18.920;2023-10-13T15:06:49;6.25;;;2.78;;
42518;SDS011;28147;47.520;18.920;2023-10-13T15:09:15;9.85;;;3.63;;
42518;SDS011;28147;47.520;18.920;2023-10-13T15:11:48;7.68;;;3.33;;
42518;SDS011;28147;47.520;18.920;2023-10-13T15:14:17;5.68;;;3.03;;
42518;SDS011;28147;47.520;18.920;2023-10-13T15:16:45;6.90;;;3.05;;
42518;SDS011;28147;47.520;18.920;2023-10-13T15:19:11;11.75;;;3.53;;
42518;SDS011;28147;47.520;18.920;2023-10-13T15:21:37;5.68;;;2.58;;
42518;SDS011;28147;47.520;18.920;2023-10-13T15:24:05;6.28;;;3.17;;
42518;SDS011;28147;47.520;18.920;2023-10-13T15:26:47;6.03;;;2.85;;
42518;SDS011;28147;47.520;18.920;2023-10-13T15:29:16;5.93;;;2.83;;
42518;SDS011;28147;47.520;18.920;2023-10-13T15:31:44;7.28;;;3.40;;
42518;SDS011;28147;47.520;18.920;2023-10-13T15:34:30;8.68;;;2.80;;
42518;SDS011;28147;47.520;18.920;2023-10-13T15:36:57;9.27;;;3.38;;
42518;SDS011;28147;47.520;18.920;2023-10-13T15:39:24;9.07;;;3.28;;
42518;SDS011;28147;47.520;18.920;2023-10-13T15:41:53;6.20;;;3.25;;
42518;SDS011;28147;47.520;18.920;2023-10-13T15:44:22;6.15;;;3.20;;
42518;SDS011;28147;47.520;18.920;2023-10-13T15:46:52;7.93;;;3.10;;
42518;SDS011;28147;47.520;18.920;2023-10-13T15:49:17;6.00;;;2.83;;
42518;SDS011;28147;47.520;18.920;2023-10-13T15:51:43;5.80;;;3.20;;
42518;SDS011;28147;47.520;18.920;2023-10-13T15:54:09;4.88;;;3.03;;
42518;SDS011;28147;47.520;18.920;2023-10-13T15:56:47;4.85;;;2.55;;
42518;SDS011;28147;47.520;18.920;2023-10-13T15:59:14;6.60;;;3.10;;
42518;SDS011;28147;47.520;18.920;2023-10-13T16:01:40;6.53;;;3.53;;
42518;SDS011;28147;47.520;18.920;2023-10-13T16:04:06;7.85;;;3.05;;
42518;SDS011;28147;47.520;18.920;2023-10-13T16:06:44;5.80;;;3.05;;